createdAt,value
2022-07-25T00:00:10.562Z,89.50
2022-07-25T00:01:32.475Z,89.40
2022-07-25T00:02:34.250Z,89.86
2022-07-25T00:03:36.249Z,89.94
2022-07-25T00:04:41.740Z,90.55
2022-07-25T00:05:44.396Z,90.74
2022-07-25T00:06:46.690Z,90.43
2022-07-25T00:07:49.059Z,90.31
2022-07-25T00:08:50.767Z,90.08
2022-07-25T00:09:52.448Z,90.14
2022-07-25T00:10:54.189Z,90.34
2022-07-25T00:11:55.870Z,90.59
2022-07-25T00:12:57.577Z,90.40
2022-07-25T00:13:59.361Z,90.41
2022-07-25T00:15:01.014Z,90.28
2022-07-25T00:16:02.761Z,90.59
2022-07-25T00:17:04.442Z,90.90
2022-07-25T00:18:06.241Z,91.03
2022-07-25T00:19:07.922Z,91.05
2022-07-25T00:20:09.844Z,90.75
2022-07-25T00:21:12.625Z,90.70
2022-07-25T00:22:14.364Z,90.49
2022-07-25T00:23:16.040Z,90.46
2022-07-25T00:24:18.285Z,90.39
2022-07-25T00:25:19.960Z,90.37
2022-07-25T00:26:21.605Z,90.35
2022-07-25T00:27:23.337Z,90.35
2022-07-25T00:28:25.044Z,90.23
2022-07-25T00:29:26.717Z,90.19
2022-07-25T00:30:28.546Z,90.15
2022-07-25T00:31:30.287Z,90.20
2022-07-25T00:32:32.094Z,90.46
2022-07-25T00:33:33.942Z,90.39
2022-07-25T00:34:35.678Z,90.49
2022-07-25T00:35:37.344Z,90.52
2022-07-25T00:36:39.219Z,90.64
2022-07-25T00:37:40.879Z,90.82
2022-07-25T00:38:42.611Z,91.05
2022-07-25T00:39:44.395Z,90.95
2022-07-25T00:40:46.126Z,90.89
2022-07-25T00:41:56.053Z,90.85
2022-07-25T00:42:57.757Z,90.75
2022-07-25T00:43:59.582Z,90.97
2022-07-25T00:45:01.368Z,91.12
2022-07-25T00:46:03.455Z,91.41
2022-07-25T00:47:05.843Z,91.42
2022-07-25T00:48:08.260Z,91.46
2022-07-25T00:49:10.077Z,91.39
2022-07-25T00:50:11.946Z,91.53
2022-07-25T00:51:15.241Z,91.62
2022-07-25T00:52:17.344Z,91.79
2022-07-25T00:53:19.342Z,91.80
2022-07-25T00:54:22.019Z,91.94
2022-07-25T00:55:25.293Z,91.90
2022-07-25T00:56:26.995Z,92.03
2022-07-25T00:57:28.703Z,92.14
2022-07-25T00:58:30.433Z,92.20
2022-07-25T00:59:32.117Z,92.04
2022-07-25T01:00:33.871Z,91.92
2022-07-25T01:01:37.322Z,91.74
2022-07-25T01:02:39.433Z,91.72
2022-07-25T01:03:41.184Z,91.89
2022-07-25T01:04:42.927Z,91.96
2022-07-25T01:05:44.822Z,92.08
2022-07-25T01:06:46.882Z,92.28
2022-07-25T01:07:48.701Z,92.33
2022-07-25T01:08:51.003Z,92.57
2022-07-25T01:09:53.489Z,92.85
2022-07-25T01:10:55.422Z,92.83
2022-07-25T01:11:57.094Z,92.71
2022-07-25T01:12:59.031Z,92.67
2022-07-25T01:14:00.748Z,93.28
2022-07-25T01:15:02.475Z,93.37
2022-07-25T01:16:04.897Z,93.07
2022-07-25T01:17:06.732Z,92.69
2022-07-25T01:18:08.507Z,92.75
2022-07-25T01:19:10.362Z,92.91
2022-07-25T01:20:23.927Z,93.08
2022-07-25T01:21:26.477Z,93.32
2022-07-25T01:22:28.189Z,93.22
2022-07-25T01:23:30.019Z,93.18
2022-07-25T01:24:33.879Z,93.16
2022-07-25T01:25:35.688Z,92.81
2022-07-25T01:26:38.384Z,92.47
2022-07-25T01:27:41.830Z,92.30
2022-07-25T01:28:43.528Z,92.03
2022-07-25T01:29:45.206Z,91.74
2022-07-25T01:30:46.946Z,91.45
2022-07-25T01:31:48.681Z,91.20
2022-07-25T01:32:50.772Z,90.97
2022-07-25T01:33:52.470Z,90.75
2022-07-25T01:34:54.165Z,90.47
2022-07-25T01:35:55.981Z,90.33
2022-07-25T01:36:57.619Z,90.03
2022-07-25T01:37:59.320Z,90.21
2022-07-25T01:39:01.151Z,90.29
2022-07-25T01:40:05.951Z,89.97
2022-07-25T01:41:07.631Z,90.04
2022-07-25T01:42:09.382Z,90.07
2022-07-25T01:43:12.121Z,90.15
2022-07-25T01:44:13.886Z,89.90
2022-07-25T01:45:15.715Z,90.08
2022-07-25T01:46:18.450Z,90.05
2022-07-25T01:47:20.335Z,89.88
2022-07-25T01:48:22.078Z,89.93
2022-07-25T01:49:26.686Z,90.08
2022-07-25T01:50:28.463Z,90.13
2022-07-25T01:51:30.166Z,90.32
2022-07-25T01:52:32.081Z,90.31
2022-07-25T01:53:33.790Z,90.56
2022-07-25T01:54:37.767Z,90.82
2022-07-25T01:55:39.521Z,90.91
2022-07-25T01:56:46.982Z,91.19
2022-07-25T01:57:50.306Z,91.44
2022-07-25T01:58:52.408Z,91.43
2022-07-25T01:59:54.057Z,91.52
2022-07-25T02:00:57.046Z,91.59
2022-07-25T02:01:59.402Z,91.85
2022-07-25T02:03:19.415Z,91.89
2022-07-25T02:04:21.132Z,91.90
2022-07-25T02:05:22.860Z,91.95
2022-07-25T02:06:24.527Z,92.19
2022-07-25T02:07:26.309Z,92.29
2022-07-25T02:08:29.660Z,92.32
2022-07-25T02:09:32.113Z,92.26
2022-07-25T02:10:33.858Z,91.93
2022-07-25T02:11:36.338Z,91.51
2022-07-25T02:12:38.115Z,91.47
2022-07-25T02:13:39.796Z,91.45
2022-07-25T02:14:41.492Z,91.29
2022-07-25T02:15:43.231Z,91.14
2022-07-25T02:16:44.980Z,91.03
2022-07-25T02:17:46.823Z,90.91
2022-07-25T02:18:48.458Z,90.90
2022-07-25T02:19:50.295Z,90.79
2022-07-25T02:20:51.996Z,90.25
2022-07-25T02:21:53.774Z,89.95
2022-07-25T02:22:55.559Z,89.86
2022-07-25T02:23:57.223Z,89.68
2022-07-25T02:24:58.951Z,89.48
2022-07-25T02:26:00.627Z,89.24
2022-07-25T02:27:02.343Z,89.10
2022-07-25T02:28:04.360Z,88.96
2022-07-25T02:29:06.092Z,88.76
2022-07-25T02:30:08.405Z,88.66
2022-07-25T02:31:10.605Z,88.51
2022-07-25T02:32:12.339Z,88.53
2022-07-25T02:33:14.076Z,88.52
2022-07-25T02:34:16.160Z,88.46
2022-07-25T02:35:17.911Z,88.26
2022-07-25T02:36:19.735Z,88.26
2022-07-25T02:37:21.399Z,88.08
2022-07-25T02:38:23.226Z,87.87
2022-07-25T02:39:25.379Z,87.74
2022-07-25T02:40:27.165Z,87.69
2022-07-25T02:41:28.855Z,87.49
2022-07-25T02:42:30.546Z,87.36
2022-07-25T02:43:32.289Z,87.39
2022-07-25T02:44:33.986Z,87.33
2022-07-25T02:45:35.752Z,87.29
2022-07-25T02:46:37.522Z,87.20
2022-07-25T02:47:39.316Z,87.13
2022-07-25T02:48:41.294Z,87.08
2022-07-25T02:49:43.072Z,87.03
2022-07-25T02:50:44.752Z,86.91
2022-07-25T02:51:46.429Z,86.76
2022-07-25T02:52:48.202Z,86.76
2022-07-25T02:54:09.230Z,86.71
2022-07-25T02:55:12.055Z,86.64
2022-07-25T02:56:14.225Z,86.59
2022-07-25T02:57:17.184Z,86.70
2022-07-25T02:58:18.880Z,86.79
2022-07-25T02:59:20.562Z,86.80
2022-07-25T03:00:22.732Z,86.87
2022-07-25T03:01:25.123Z,87.05
2022-07-25T03:02:27.001Z,86.72
2022-07-25T03:03:29.027Z,86.55
2022-07-25T03:04:31.319Z,86.36
2022-07-25T03:05:33.263Z,86.10
2022-07-25T03:06:35.010Z,85.98
2022-07-25T03:07:37.261Z,86.00
2022-07-25T03:08:38.939Z,85.99
2022-07-25T03:09:40.713Z,86.04
2022-07-25T03:10:42.795Z,86.02
2022-07-25T03:11:44.465Z,86.11
2022-07-25T03:12:46.215Z,86.40
2022-07-25T03:13:47.978Z,86.33
2022-07-25T03:14:50.536Z,86.28
2022-07-25T03:15:52.223Z,86.40
2022-07-25T03:16:54.588Z,86.51
2022-07-25T03:17:56.355Z,86.47
2022-07-25T03:18:57.990Z,86.24
2022-07-25T03:19:59.881Z,86.12
2022-07-25T03:21:02.213Z,85.95
2022-07-25T03:22:03.891Z,85.87
2022-07-25T03:23:05.665Z,85.81
2022-07-25T03:24:07.703Z,85.96
2022-07-25T03:25:15.615Z,85.82
2022-07-25T03:26:23.314Z,85.46
2022-07-25T03:27:26.909Z,85.27
2022-07-25T03:28:28.553Z,85.15
2022-07-25T03:29:30.190Z,85.07
2022-07-25T03:30:32.053Z,85.01
2022-07-25T03:31:34.470Z,84.86
2022-07-25T03:32:36.253Z,84.80
2022-07-25T03:33:37.902Z,84.69
2022-07-25T03:34:39.597Z,84.61
2022-07-25T03:35:41.452Z,84.64
2022-07-25T03:36:43.286Z,84.60
2022-07-25T03:37:45.605Z,84.60
2022-07-25T03:38:47.311Z,84.47
2022-07-25T03:39:49.166Z,84.56
2022-07-25T03:40:51.077Z,84.32
2022-07-25T03:41:53.017Z,84.40
2022-07-25T03:42:55.025Z,84.33
2022-07-25T03:43:56.696Z,84.32
2022-07-25T03:44:58.414Z,84.27
2022-07-25T03:46:00.245Z,84.19
2022-07-25T03:47:01.935Z,84.14
2022-07-25T03:48:03.804Z,84.27
2022-07-25T03:49:05.790Z,84.41
2022-07-25T03:50:07.787Z,84.30
2022-07-25T03:51:09.600Z,84.28
2022-07-25T03:52:11.278Z,84.25
2022-07-25T03:53:12.960Z,84.19
2022-07-25T03:54:15.235Z,84.02
2022-07-25T03:55:16.889Z,84.16
2022-07-25T03:56:18.935Z,83.96
2022-07-25T03:57:20.639Z,83.96
2022-07-25T03:58:22.514Z,83.75
2022-07-25T03:59:24.258Z,83.90
2022-07-25T04:00:25.991Z,83.83
2022-07-25T04:01:29.281Z,83.77
2022-07-25T04:02:31.049Z,83.68
2022-07-25T04:03:33.074Z,83.64
2022-07-25T04:04:34.798Z,83.65
2022-07-25T04:05:36.459Z,83.66
2022-07-25T04:06:39.850Z,83.49
2022-07-25T04:07:41.513Z,83.58
2022-07-25T04:08:43.169Z,83.54
2022-07-25T04:09:44.960Z,83.57
2022-07-25T04:10:46.661Z,83.59
2022-07-25T04:11:48.686Z,83.66
2022-07-25T04:12:50.377Z,83.51
2022-07-25T04:13:52.110Z,83.24
2022-07-25T04:14:53.819Z,82.98
2022-07-25T04:15:55.674Z,82.81
2022-07-25T04:17:00.242Z,82.89
2022-07-25T04:18:02.016Z,82.67
2022-07-25T04:19:06.287Z,82.75
2022-07-25T04:20:08.664Z,82.70
2022-07-25T04:21:10.865Z,82.62
2022-07-25T04:22:12.674Z,82.48
2022-07-25T04:23:14.375Z,82.44
2022-07-25T04:24:16.051Z,82.48
2022-07-25T04:25:17.999Z,82.43
2022-07-25T04:26:20.524Z,82.39
2022-07-25T04:27:22.298Z,82.28
2022-07-25T04:28:27.165Z,82.34
2022-07-25T04:29:29.177Z,82.32
2022-07-25T04:30:31.125Z,82.14
2022-07-25T04:31:32.884Z,81.99
2022-07-25T04:32:34.586Z,81.92
2022-07-25T04:33:40.704Z,81.82
2022-07-25T04:34:43.772Z,81.96
2022-07-25T04:35:45.680Z,81.69
2022-07-25T04:36:47.352Z,81.84
2022-07-25T04:37:49.632Z,81.66
2022-07-25T04:38:51.522Z,81.49
2022-07-25T04:39:53.208Z,81.45
2022-07-25T04:40:54.887Z,81.21
2022-07-25T04:41:56.595Z,81.27
2022-07-25T04:42:58.367Z,81.47
2022-07-25T04:44:00.136Z,81.38
2022-07-25T04:45:01.800Z,81.15
2022-07-25T04:46:03.571Z,81.36
2022-07-25T04:47:05.779Z,81.20
2022-07-25T04:48:07.665Z,81.14
2022-07-25T04:49:09.494Z,81.07
2022-07-25T04:50:11.400Z,80.89
2022-07-25T04:51:13.142Z,80.91
2022-07-25T04:52:14.909Z,81.18
2022-07-25T04:53:16.814Z,81.03
2022-07-25T04:54:18.509Z,81.23
2022-07-25T04:55:20.281Z,81.17
2022-07-25T04:56:21.919Z,81.03
2022-07-25T04:57:23.684Z,80.87
2022-07-25T04:58:25.392Z,80.72
2022-07-25T04:59:27.197Z,80.83
2022-07-25T05:00:28.906Z,80.67
2022-07-25T05:01:30.648Z,80.54
2022-07-25T05:02:32.598Z,80.37
2022-07-25T05:03:34.653Z,80.19
2022-07-25T05:04:36.363Z,80.12
2022-07-25T05:05:46.521Z,80.30
2022-07-25T05:06:48.261Z,79.75
2022-07-25T05:07:55.725Z,79.54
2022-07-25T05:08:57.392Z,79.47
2022-07-25T05:09:59.113Z,79.11
2022-07-25T05:11:00.901Z,79.01
2022-07-25T05:12:02.567Z,79.15
2022-07-25T05:13:04.842Z,79.25
2022-07-25T05:14:06.811Z,79.13
2022-07-25T05:15:09.440Z,79.14
2022-07-25T05:16:11.167Z,78.90
2022-07-25T05:17:12.915Z,78.86
2022-07-25T05:18:14.808Z,78.95
2022-07-25T05:19:16.582Z,78.55
2022-07-25T05:20:18.385Z,78.48
2022-07-25T05:21:20.097Z,78.25
2022-07-25T05:22:25.186Z,78.10
2022-07-25T05:23:30.239Z,78.34
2022-07-25T05:24:36.084Z,78.12
2022-07-25T05:25:37.796Z,78.47
2022-07-25T05:26:39.505Z,79.40
2022-07-25T05:27:41.711Z,79.34
2022-07-25T05:28:43.375Z,78.12
2022-07-25T05:29:45.107Z,77.79
2022-07-25T05:30:46.819Z,77.51
2022-07-25T05:31:48.649Z,76.33
2022-07-25T05:32:50.364Z,76.43
2022-07-25T05:33:52.136Z,75.86
2022-07-25T05:34:53.845Z,75.97
2022-07-25T05:35:55.539Z,75.14
2022-07-25T05:36:57.224Z,74.68
2022-07-25T05:37:58.924Z,74.01
2022-07-25T05:39:00.793Z,73.74
2022-07-25T05:40:03.057Z,73.78
2022-07-25T05:41:05.396Z,74.38
2022-07-25T05:42:07.978Z,73.20
2022-07-25T05:43:09.629Z,73.30
2022-07-25T05:44:11.287Z,73.04
2022-07-25T05:45:13.009Z,72.42
2022-07-25T05:46:15.586Z,72.25
2022-07-25T05:47:17.468Z,72.06
2022-07-25T05:48:19.152Z,71.41
2022-07-25T05:49:20.848Z,71.00
2022-07-25T05:50:22.715Z,70.86
2022-07-25T05:51:27.463Z,70.91
2022-07-25T05:52:29.419Z,71.17
2022-07-25T05:53:31.271Z,70.97
2022-07-25T05:54:34.173Z,70.99
2022-07-25T05:55:35.878Z,70.51
2022-07-25T05:56:42.622Z,69.66
2022-07-25T05:57:44.324Z,69.62
2022-07-25T05:58:46.488Z,69.72
2022-07-25T05:59:48.210Z,70.04
2022-07-25T06:00:51.156Z,69.74
2022-07-25T06:01:52.979Z,69.92
2022-07-25T06:02:58.636Z,69.31
2022-07-25T06:04:00.786Z,69.33
2022-07-25T06:05:02.458Z,69.12
2022-07-25T06:06:04.786Z,69.77
2022-07-25T06:07:06.466Z,69.55
2022-07-25T06:08:08.137Z,68.99
2022-07-25T06:09:09.778Z,68.82
2022-07-25T06:10:11.444Z,68.70
2022-07-25T06:11:13.201Z,68.40
2022-07-25T06:12:14.934Z,68.45
2022-07-25T06:13:16.615Z,67.49
2022-07-25T06:14:22.101Z,67.23
2022-07-25T06:15:26.979Z,67.45
2022-07-25T06:16:29.407Z,67.19
2022-07-25T06:17:32.700Z,67.24
2022-07-25T06:18:34.916Z,67.19
2022-07-25T06:19:36.678Z,66.84
2022-07-25T06:20:38.335Z,67.11
2022-07-25T06:21:40.063Z,67.02
2022-07-25T06:22:41.837Z,66.77
2022-07-25T06:23:43.531Z,66.42
2022-07-25T06:24:45.695Z,66.14
2022-07-25T06:25:50.156Z,66.32
2022-07-25T06:26:52.465Z,65.93
2022-07-25T06:27:54.145Z,65.23
2022-07-25T06:28:55.990Z,65.23
2022-07-25T06:29:57.782Z,64.92
2022-07-25T06:30:59.670Z,64.32
2022-07-25T06:32:02.348Z,64.99
2022-07-25T06:33:04.086Z,65.43
2022-07-25T06:34:06.134Z,64.51
2022-07-25T06:35:08.351Z,63.83
2022-07-25T06:36:10.571Z,62.96
2022-07-25T06:37:12.343Z,62.88
2022-07-25T06:38:14.079Z,62.44
2022-07-25T06:39:15.702Z,62.29
2022-07-25T06:40:17.376Z,62.03
2022-07-25T06:41:19.059Z,62.14
2022-07-25T06:42:20.753Z,62.10
2022-07-25T06:43:24.418Z,61.27
2022-07-25T06:44:27.262Z,60.61
2022-07-25T06:45:28.920Z,60.73
2022-07-25T06:46:32.845Z,61.70
2022-07-25T06:47:36.098Z,61.32
2022-07-25T06:48:38.273Z,60.74
2022-07-25T06:49:42.218Z,59.56
2022-07-25T06:50:44.728Z,59.21
2022-07-25T06:51:46.406Z,59.95
2022-07-25T06:52:49.009Z,60.10
2022-07-25T06:53:50.944Z,59.95
2022-07-25T06:54:52.679Z,59.16
2022-07-25T06:55:54.366Z,58.99
2022-07-25T06:56:56.066Z,59.02
2022-07-25T06:57:57.784Z,59.03
2022-07-25T06:59:00.493Z,59.89
2022-07-25T07:00:06.679Z,59.24
2022-07-25T07:01:08.436Z,58.03
2022-07-25T07:02:10.203Z,58.05
2022-07-25T07:03:11.899Z,58.18
2022-07-25T07:04:13.626Z,57.77
2022-07-25T07:05:15.361Z,57.40
2022-07-25T07:06:17.228Z,57.59
2022-07-25T07:07:19.171Z,57.99
2022-07-25T07:08:20.900Z,57.40
2022-07-25T07:09:22.741Z,57.41
2022-07-25T07:10:25.158Z,56.93
2022-07-25T07:11:26.821Z,57.35
2022-07-25T07:12:28.490Z,57.95
2022-07-25T07:13:31.188Z,57.23
2022-07-25T07:14:32.894Z,56.78
2022-07-25T07:15:35.003Z,56.73
2022-07-25T07:16:36.797Z,56.34
2022-07-25T07:17:38.777Z,56.40
2022-07-25T07:18:40.523Z,56.64
2022-07-25T07:19:44.581Z,56.42
2022-07-25T07:20:47.293Z,56.43
2022-07-25T07:21:51.355Z,56.11
2022-07-25T07:22:53.380Z,56.03
2022-07-25T07:23:55.043Z,55.85
2022-07-25T07:24:58.643Z,56.17
2022-07-25T07:26:00.337Z,55.70
2022-07-25T07:27:02.066Z,55.06
2022-07-25T07:28:04.445Z,54.78
2022-07-25T07:29:06.370Z,55.67
2022-07-25T07:30:09.580Z,55.03
2022-07-25T07:31:16.782Z,55.26
2022-07-25T07:32:19.363Z,55.48
2022-07-25T07:33:21.246Z,55.55
2022-07-25T07:34:22.986Z,54.94
2022-07-25T07:35:25.410Z,55.68
2022-07-25T07:36:29.554Z,55.04
2022-07-25T07:37:36.591Z,54.56
2022-07-25T07:38:40.551Z,54.56
2022-07-25T07:39:42.494Z,54.07
2022-07-25T07:40:44.303Z,54.07
2022-07-25T07:41:45.947Z,53.36
2022-07-25T07:42:50.204Z,53.51
2022-07-25T07:43:51.910Z,53.07
2022-07-25T07:44:53.578Z,52.82
2022-07-25T07:45:56.070Z,52.07
2022-07-25T07:47:01.648Z,52.78
2022-07-25T07:48:03.505Z,52.10
2022-07-25T07:49:05.608Z,51.48
2022-07-25T07:50:08.682Z,51.33
2022-07-25T07:51:10.371Z,52.02
2022-07-25T07:52:12.011Z,51.80
2022-07-25T07:53:13.656Z,52.16
2022-07-25T07:54:33.982Z,52.68
2022-07-25T07:55:44.324Z,53.01
2022-07-25T07:56:46.326Z,53.29
2022-07-25T07:57:48.206Z,52.98
2022-07-25T07:58:50.480Z,53.37
2022-07-25T07:59:52.142Z,52.88
2022-07-25T08:00:54.361Z,52.09
2022-07-25T08:01:56.111Z,51.01
2022-07-25T08:02:59.772Z,50.62
2022-07-25T08:04:01.740Z,51.27
2022-07-25T08:05:03.657Z,50.47
2022-07-25T08:06:05.746Z,50.34
2022-07-25T08:07:07.542Z,50.24
2022-07-25T08:08:12.043Z,50.04
2022-07-25T08:09:13.894Z,49.81
2022-07-25T08:10:15.958Z,49.87
2022-07-25T08:11:17.588Z,49.35
2022-07-25T08:12:21.041Z,49.10
2022-07-25T08:13:25.729Z,50.21
2022-07-25T08:14:27.367Z,49.84
2022-07-25T08:15:29.393Z,50.38
2022-07-25T08:16:31.166Z,50.24
2022-07-25T08:17:32.922Z,49.96
2022-07-25T08:18:35.980Z,50.12
2022-07-25T08:19:37.623Z,48.72
2022-07-25T08:20:39.881Z,48.69
2022-07-25T08:21:41.566Z,48.54
2022-07-25T08:22:45.971Z,48.59
2022-07-25T08:23:48.015Z,49.10
2022-07-25T08:24:49.952Z,48.44
2022-07-25T08:25:52.441Z,48.39
2022-07-25T08:26:54.112Z,47.58
2022-07-25T08:27:55.896Z,48.13
2022-07-25T08:29:17.711Z,48.83
2022-07-25T08:30:19.407Z,47.27
2022-07-25T08:31:21.192Z,46.80
2022-07-25T08:32:22.947Z,46.63
2022-07-25T08:33:25.478Z,46.40
2022-07-25T08:34:27.117Z,46.22
2022-07-25T08:35:30.853Z,46.10
2022-07-25T08:36:34.828Z,46.06
2022-07-25T08:37:36.701Z,46.57
2022-07-25T08:38:38.487Z,46.08
2022-07-25T08:39:41.623Z,45.78
2022-07-25T08:40:43.456Z,46.23
2022-07-25T08:41:46.058Z,46.69
2022-07-25T08:42:48.378Z,44.79
2022-07-25T08:43:51.724Z,44.17
2022-07-25T08:44:59.945Z,43.94
2022-07-25T08:46:02.501Z,43.33
2022-07-25T08:47:04.956Z,44.31
2022-07-25T08:48:11.533Z,44.21
2022-07-25T08:49:13.667Z,43.91
2022-07-25T08:50:18.272Z,45.31
2022-07-25T08:51:20.466Z,44.58
2022-07-25T08:52:23.422Z,44.00
2022-07-25T08:53:34.675Z,45.34
2022-07-25T08:54:37.416Z,45.04
2022-07-25T08:55:39.586Z,45.37
2022-07-25T08:56:41.283Z,45.32
2022-07-25T08:57:46.366Z,44.96
2022-07-25T08:58:49.414Z,44.60
2022-07-25T08:59:51.128Z,43.93
2022-07-25T09:00:52.906Z,43.60
2022-07-25T09:01:54.578Z,42.90
2022-07-25T09:03:00.565Z,44.27
2022-07-25T09:04:03.893Z,43.41
2022-07-25T09:05:06.298Z,44.17
2022-07-25T09:06:19.268Z,43.71
2022-07-25T09:07:32.677Z,43.58
2022-07-25T09:08:34.365Z,42.76
2022-07-25T09:09:39.538Z,43.11
2022-07-25T09:10:47.117Z,43.23
2022-07-25T09:11:49.995Z,42.93
2022-07-25T09:12:57.275Z,41.24
2022-07-25T09:14:01.514Z,40.74
2022-07-25T09:15:03.535Z,40.03
2022-07-25T09:16:06.020Z,40.71
2022-07-25T09:17:21.857Z,41.12
2022-07-25T09:18:27.294Z,40.57
2022-07-25T09:19:29.107Z,41.28
2022-07-25T09:20:45.422Z,42.05
2022-07-25T09:22:03.555Z,40.48
2022-07-25T09:23:06.144Z,38.75
2022-07-25T09:24:15.930Z,39.77
2022-07-25T09:25:26.643Z,39.62
2022-07-25T09:26:28.310Z,38.68
2022-07-25T09:27:34.499Z,39.05
2022-07-25T09:28:47.196Z,39.28
2022-07-25T09:29:49.208Z,39.86
2022-07-25T09:30:57.306Z,39.06
2022-07-25T09:32:01.450Z,39.32
2022-07-25T09:33:03.122Z,39.70
2022-07-25T09:34:08.470Z,39.91
2022-07-25T09:35:10.517Z,38.83
2022-07-25T09:36:12.759Z,38.08
2022-07-25T09:37:17.591Z,38.52
2022-07-25T09:38:20.914Z,38.04
2022-07-25T09:39:46.037Z,38.02
2022-07-25T09:41:01.456Z,40.15
2022-07-25T09:42:14.803Z,38.55
2022-07-25T09:43:16.630Z,38.14
2022-07-25T09:44:21.644Z,37.90
2022-07-25T09:45:26.012Z,38.11
2022-07-25T09:46:32.469Z,38.28
2022-07-25T09:47:36.782Z,38.64
2022-07-25T09:48:40.717Z,38.46
2022-07-25T09:49:44.906Z,38.12
2022-07-25T09:50:47.037Z,38.32
2022-07-25T09:51:48.824Z,38.34
2022-07-25T09:52:53.191Z,38.34
2022-07-25T09:53:54.993Z,39.03
2022-07-25T09:54:56.674Z,39.70
2022-07-25T09:55:58.989Z,39.61
2022-07-25T09:57:00.703Z,38.84
2022-07-25T09:58:02.408Z,37.65
2022-07-25T09:59:05.705Z,38.75
2022-07-25T10:00:09.260Z,40.10
2022-07-25T10:01:22.613Z,38.09
2022-07-25T10:02:40.733Z,38.30
2022-07-25T10:03:48.256Z,37.02
2022-07-25T10:04:56.791Z,36.81
2022-07-25T10:06:20.783Z,36.41
2022-07-25T10:07:28.225Z,36.35
2022-07-25T10:08:37.873Z,36.73
2022-07-25T10:09:48.735Z,37.57
2022-07-25T10:10:50.675Z,36.18
2022-07-25T10:12:10.124Z,36.58
2022-07-25T10:13:16.929Z,36.65
2022-07-25T10:14:19.655Z,36.68
2022-07-25T10:15:21.439Z,37.07
2022-07-25T10:16:27.417Z,36.13
2022-07-25T10:17:29.274Z,36.15
2022-07-25T10:18:31.742Z,36.29
2022-07-25T10:19:50.053Z,37.09
2022-07-25T10:21:25.037Z,38.86
2022-07-25T10:22:57.530Z,37.44
2022-07-25T10:24:06.353Z,37.43
2022-07-25T10:25:14.590Z,37.82
2022-07-25T10:26:16.482Z,38.75
2022-07-25T10:27:23.813Z,36.30
2022-07-25T10:28:48.096Z,36.89
2022-07-25T10:29:54.205Z,38.61
2022-07-25T10:30:58.976Z,38.51
2022-07-25T10:32:11.547Z,38.08
2022-07-25T10:33:17.667Z,38.88
2022-07-25T10:34:33.285Z,39.36
2022-07-25T10:35:35.415Z,40.38
2022-07-25T10:36:51.034Z,38.51
2022-07-25T10:37:55.879Z,37.18
2022-07-25T10:39:01.087Z,35.21
2022-07-25T10:40:04.008Z,35.12
2022-07-25T10:41:08.899Z,35.74
2022-07-25T10:42:21.866Z,36.12
2022-07-25T10:43:25.576Z,36.53
2022-07-25T10:44:39.296Z,35.41
2022-07-25T10:45:52.914Z,36.44
2022-07-25T10:47:09.099Z,37.18
2022-07-25T10:48:21.157Z,37.67
2022-07-25T10:49:32.156Z,37.65
2022-07-25T10:50:54.331Z,36.70
2022-07-25T10:51:59.161Z,36.14
2022-07-25T10:53:01.638Z,36.95
2022-07-25T10:54:14.946Z,34.49
2022-07-25T10:55:23.975Z,33.13
2022-07-25T10:56:28.807Z,32.64
2022-07-25T10:57:32.191Z,34.35
2022-07-25T10:58:44.513Z,36.11
2022-07-25T10:59:46.820Z,36.65
2022-07-25T11:00:48.499Z,36.77
2022-07-25T11:01:51.299Z,34.29
2022-07-25T11:02:57.417Z,32.58
2022-07-25T11:04:05.618Z,32.41
2022-07-25T11:05:07.601Z,31.57
2022-07-25T11:06:09.321Z,31.64
2022-07-25T11:07:14.676Z,31.82
2022-07-25T11:08:22.254Z,32.17
2022-07-25T11:09:28.292Z,31.76
2022-07-25T11:10:30.483Z,33.26
2022-07-25T11:11:42.110Z,32.31
2022-07-25T11:12:47.159Z,32.88
2022-07-25T11:13:50.149Z,31.64
2022-07-25T11:15:00.664Z,33.40
2022-07-25T11:16:02.392Z,32.22
2022-07-25T11:17:18.582Z,31.85
2022-07-25T11:18:40.699Z,31.52
2022-07-25T11:19:52.663Z,32.63
2022-07-25T11:21:06.892Z,32.20
2022-07-25T11:22:09.410Z,34.78
2022-07-25T11:23:11.121Z,32.96
2022-07-25T11:24:13.467Z,31.97
2022-07-25T11:25:15.167Z,32.27
2022-07-25T11:26:16.846Z,31.64
2022-07-25T11:27:24.524Z,30.97
2022-07-25T11:28:40.447Z,30.97
2022-07-25T11:29:42.303Z,30.73
2022-07-25T11:30:44.023Z,30.06
2022-07-25T11:31:53.298Z,28.79
2022-07-25T11:32:57.981Z,28.53
2022-07-25T11:33:59.927Z,28.48
2022-07-25T11:35:01.843Z,28.89
2022-07-25T11:36:04.856Z,29.00
2022-07-25T11:37:09.975Z,28.77
2022-07-25T11:38:14.826Z,28.76
2022-07-25T11:39:19.009Z,29.12
2022-07-25T11:40:22.670Z,30.11
2022-07-25T11:41:30.885Z,30.11
2022-07-25T11:42:47.840Z,28.05
2022-07-25T11:43:49.755Z,26.65
2022-07-25T11:44:53.045Z,26.65
2022-07-25T11:46:04.368Z,28.14
2022-07-25T11:47:09.516Z,27.29
2022-07-25T11:48:13.441Z,27.38
2022-07-25T11:49:15.324Z,26.66
2022-07-25T11:50:17.470Z,27.59
2022-07-25T11:51:19.682Z,26.49
2022-07-25T11:52:34.800Z,28.45
2022-07-25T11:53:42.206Z,28.74
2022-07-25T11:54:55.034Z,27.30
2022-07-25T11:55:56.704Z,26.84
2022-07-25T11:56:58.633Z,26.49
2022-07-25T11:58:03.482Z,28.93
2022-07-25T11:59:05.566Z,28.21
2022-07-25T12:00:18.583Z,27.66
2022-07-25T12:01:20.252Z,27.32
2022-07-25T12:02:28.215Z,25.55
2022-07-25T12:03:38.184Z,25.89
2022-07-25T12:04:40.002Z,27.92
2022-07-25T12:05:42.027Z,25.84
2022-07-25T12:06:45.655Z,26.55
2022-07-25T12:07:53.116Z,25.73
2022-07-25T12:08:54.876Z,26.26
2022-07-25T12:09:57.987Z,26.46
2022-07-25T12:11:00.690Z,26.00
2022-07-25T12:12:04.635Z,25.26
2022-07-25T12:13:08.760Z,24.59
2022-07-25T12:14:11.074Z,24.30
2022-07-25T12:15:16.359Z,24.83
2022-07-25T12:16:18.250Z,24.99
2022-07-25T12:17:19.991Z,25.34
2022-07-25T12:18:21.755Z,24.99
2022-07-25T12:19:23.485Z,24.84
2022-07-25T12:20:38.179Z,25.10
2022-07-25T12:21:39.824Z,25.01
2022-07-25T12:22:41.937Z,25.04
2022-07-25T12:23:43.849Z,24.70
2022-07-25T12:24:45.507Z,24.33
2022-07-25T12:25:47.883Z,25.18
2022-07-25T12:26:49.578Z,24.28
2022-07-25T12:27:51.691Z,23.98
2022-07-25T12:28:53.472Z,23.21
2022-07-25T12:29:55.172Z,22.93
2022-07-25T12:30:57.094Z,23.23
2022-07-25T12:31:59.092Z,22.57
2022-07-25T12:33:01.356Z,22.88
2022-07-25T12:34:03.909Z,22.92
2022-07-25T12:35:08.457Z,22.45
2022-07-25T12:36:13.819Z,23.00
2022-07-25T12:37:15.540Z,23.94
2022-07-25T12:38:17.495Z,23.60
2022-07-25T12:39:19.366Z,24.51
2022-07-25T12:40:21.984Z,24.63
2022-07-25T12:41:23.717Z,24.35
2022-07-25T12:42:27.125Z,25.04
2022-07-25T12:43:28.823Z,25.73
2022-07-25T12:44:30.509Z,25.28
2022-07-25T12:45:32.846Z,24.90
2022-07-25T12:46:36.024Z,24.19
2022-07-25T12:47:38.210Z,22.84
2022-07-25T12:48:40.037Z,24.05
2022-07-25T12:49:41.915Z,23.69
2022-07-25T12:50:44.623Z,23.63
2022-07-25T12:51:46.395Z,23.87
2022-07-25T12:52:48.347Z,23.94
2022-07-25T12:53:50.205Z,23.71
2022-07-25T12:54:52.104Z,24.49
2022-07-25T12:55:53.791Z,25.12
2022-07-25T12:56:55.560Z,24.42
2022-07-25T12:57:57.334Z,23.99
2022-07-25T12:58:59.079Z,23.80
2022-07-25T13:00:00.951Z,22.71
2022-07-25T13:01:03.404Z,22.62
2022-07-25T13:02:06.007Z,23.83
2022-07-25T13:03:07.800Z,23.17
2022-07-25T13:04:09.470Z,23.93
2022-07-25T13:05:11.502Z,23.45
2022-07-25T13:06:13.299Z,22.92
2022-07-25T13:07:16.166Z,22.23
2022-07-25T13:08:18.273Z,21.96
2022-07-25T13:09:20.038Z,22.40
2022-07-25T13:10:22.172Z,22.08
2022-07-25T13:11:23.849Z,20.87
2022-07-25T13:12:25.555Z,20.50
2022-07-25T13:13:27.266Z,20.65
2022-07-25T13:14:28.922Z,20.81
2022-07-25T13:15:30.717Z,21.11
2022-07-25T13:16:34.560Z,20.68
2022-07-25T13:17:37.271Z,20.38
2022-07-25T13:18:38.993Z,20.15
2022-07-25T13:19:40.698Z,20.34
2022-07-25T13:20:42.419Z,20.91
2022-07-25T13:21:44.591Z,21.58
2022-07-25T13:22:46.321Z,21.35
2022-07-25T13:23:48.031Z,21.27
2022-07-25T13:24:49.936Z,22.05
2022-07-25T13:25:52.678Z,22.73
2022-07-25T13:26:54.591Z,22.73
2022-07-25T13:27:56.257Z,21.60
2022-07-25T13:29:00.115Z,20.62
2022-07-25T13:30:01.887Z,20.39
2022-07-25T13:31:06.897Z,21.09
2022-07-25T13:32:08.734Z,21.45
2022-07-25T13:33:11.026Z,21.28
2022-07-25T13:34:12.723Z,20.95
2022-07-25T13:35:17.773Z,20.39
2022-07-25T13:36:22.219Z,19.71
2022-07-25T13:37:24.214Z,20.20